Time;durP1;ratioP1;P1;durP2;ratioP2;P2;SDS_P1;SDS_P2;PMS_P1;PMS_P2;Temp;Humidity;BMP_temperature;BMP_pressure;BME280_temperature;BME280_humidity;BME280_pressure;Samples;Min_cycle;Max_cycle;Signal;HPM_P1;HPM_P2
2022/04/10 00:00:14;;;;;;;7.27;2.00;;;6.40;99.90;;;;;;5073575;28;20046;-78
2022/04/10 00:02:41;;;;;;;4.07;2.20;;;6.40;99.90;;;;;;5055980;28;20028;-78
2022/04/10 00:05:07;;;;;;;4.30;2.17;;;6.30;99.90;;;;;;5073182;28;20104;-78
2022/04/10 00:07:33;;;;;;;4.83;2.10;;;6.30;99.90;;;;;;5056163;28;20024;-78
2022/04/10 00:09:58;;;;;;;5.37;2.10;;;6.30;99.90;;;;;;5054989;28;20041;-78
2022/04/10 00:12:24;;;;;;;2.27;1.90;;;6.30;99.90;;;;;;5055688;28;20028;-78
2022/04/10 00:14:49;;;;;;;4.10;2.10;;;6.30;99.90;;;;;;5072991;28;20020;-79
2022/04/10 00:17:15;;;;;;;4.77;2.43;;;6.20;99.90;;;;;;5072884;28;20523;-78
2022/04/10 00:19:41;;;;;;;4.73;2.30;;;6.10;99.90;;;;;;5055315;28;20051;-78
2022/04/10 00:22:07;;;;;;;6.50;2.30;;;6.10;99.90;;;;;;5055272;28;20153;-78
2022/04/10 00:24:32;;;;;;;4.23;2.30;;;6.10;99.90;;;;;;5073766;28;20093;-78
2022/04/10 00:26:58;;;;;;;2.83;2.00;;;6.10;99.90;;;;;;5055529;28;20020;-79
2022/04/10 00:29:24;;;;;;;5.03;2.60;;;6.10;99.90;;;;;;5055654;28;20124;-78
2022/04/10 00:31:51;;;;;;;9.47;2.27;;;6.00;99.90;;;;;;5073126;28;20048;-79
2022/04/10 00:34:16;;;;;;;5.00;2.40;;;6.00;99.90;;;;;;5073593;28;20074;-78
2022/04/10 00:36:42;;;;;;;4.03;2.00;;;5.90;99.90;;;;;;5073558;28;20024;-77
2022/04/10 00:39:08;;;;;;;3.27;2.20;;;5.80;99.90;;;;;;5073311;28;20449;-78
2022/04/10 00:41:34;;;;;;;4.40;1.67;;;5.80;99.90;;;;;;5073728;28;20028;-78
2022/04/10 00:44:03;;;;;;;5.47;1.90;;;5.80;99.90;;;;;;5055194;28;20450;-78
2022/04/10 00:46:29;;;;;;;4.60;1.90;;;5.80;99.90;;;;;;5073459;28;20094;-78
2022/04/10 00:48:55;;;;;;;3.87;2.17;;;5.70;99.90;;;;;;5072894;28;20455;-79
2022/04/10 00:54:05;;;;;;;3.80;1.60;;;5.70;99.90;;;;;;5073098;28;20467;-78
2022/04/10 00:56:31;;;;;;;2.93;1.90;;;5.70;99.90;;;;;;5055972;28;20050;-78
2022/04/10 00:58:57;;;;;;;6.13;1.73;;;5.70;99.90;;;;;;5054901;28;20064;-78
2022/04/10 01:01:22;;;;;;;3.67;1.97;;;5.60;99.90;;;;;;5055735;28;20021;-78
2022/04/10 01:03:48;;;;;;;3.03;1.97;;;5.60;99.90;;;;;;5055835;28;20032;-78
2022/04/10 01:06:14;;;;;;;5.07;2.00;;;5.60;99.90;;;;;;5055136;28;20025;-78
2022/04/10 01:08:40;;;;;;;5.23;1.80;;;5.60;99.90;;;;;;5055389;28;20078;-78
2022/04/10 01:11:06;;;;;;;7.27;2.10;;;5.60;99.90;;;;;;5054925;28;20035;-78
2022/04/10 01:13:32;;;;;;;6.13;2.20;;;5.60;99.90;;;;;;5055456;28;20016;-78
2022/04/10 01:15:58;;;;;;;3.33;1.90;;;5.50;99.90;;;;;;5054770;28;20025;-79
2022/04/10 01:18:25;;;;;;;5.03;2.20;;;5.50;99.90;;;;;;5072994;28;20446;-78
2022/04/10 01:20:51;;;;;;;3.53;2.20;;;5.50;99.90;;;;;;5055299;28;20441;-78
2022/04/10 01:23:17;;;;;;;4.03;2.00;;;5.40;99.90;;;;;;5055169;28;20020;-78
2022/04/10 01:25:44;;;;;;;6.10;2.17;;;5.40;99.90;;;;;;5073041;28;20477;-78
2022/04/10 01:28:13;;;;;;;7.10;2.33;;;5.40;99.90;;;;;;5054870;28;20047;-78
2022/04/10 01:30:39;;;;;;;5.70;2.40;;;5.40;99.90;;;;;;5076534;28;20021;-78
2022/04/10 01:33:05;;;;;;;5.20;2.40;;;5.30;99.90;;;;;;5058441;28;20016;-78
2022/04/10 01:35:32;;;;;;;3.80;2.27;;;5.30;99.90;;;;;;5059128;28;20020;-78
2022/04/10 01:38:00;;;;;;;2.80;2.10;;;5.30;99.90;;;;;;5076037;28;20021;-78
2022/04/10 01:40:26;;;;;;;4.40;2.30;;;5.30;99.90;;;;;;5059004;28;20045;-78
2022/04/10 01:42:52;;;;;;;4.60;2.10;;;5.20;99.90;;;;;;5058686;28;20025;-78
2022/04/10 01:45:18;;;;;;;4.07;2.30;;;5.20;99.90;;;;;;5076538;28;20450;-78
2022/04/10 01:47:43;;;;;;;6.20;2.30;;;5.20;99.90;;;;;;5076317;28;20411;-78
2022/04/10 01:50:11;;;;;;;3.80;2.03;;;5.10;99.90;;;;;;5058341;28;20020;-78
2022/04/10 01:52:36;;;;;;;3.63;2.20;;;5.10;99.90;;;;;;5076259;28;20017;-78
2022/04/10 01:55:02;;;;;;;4.43;2.07;;;5.10;99.90;;;;;;5058162;28;20361;-78
2022/04/10 01:57:28;;;;;;;3.47;2.10;;;5.10;99.90;;;;;;5058666;28;20020;-78
2022/04/10 01:59:54;;;;;;;3.60;2.30;;;5.00;99.90;;;;;;5058059;28;20119;-78
2022/04/10 02:02:19;;;;;;;4.43;2.47;;;5.00;99.90;;;;;;5058524;28;20035;-78
2022/04/10 02:04:46;;;;;;;6.93;2.57;;;5.00;99.90;;;;;;5058366;28;20450;-78
2022/04/10 02:07:11;;;;;;;4.20;2.60;;;5.00;99.90;;;;;;5075526;28;20013;-78
2022/04/10 02:09:37;;;;;;;3.27;2.00;;;5.00;99.90;;;;;;5076195;28;20052;-78
2022/04/10 02:12:03;;;;;;;4.40;2.60;;;4.90;99.90;;;;;;5057992;28;20028;-78
2022/04/10 02:14:28;;;;;;;4.87;2.37;;;4.90;99.90;;;;;;5058476;28;20020;-78
2022/04/10 02:16:54;;;;;;;3.77;2.47;;;4.90;99.90;;;;;;5075976;28;20063;-78
2022/04/10 02:19:20;;;;;;;3.17;2.20;;;4.80;99.90;;;;;;5058159;28;20029;-78
2022/04/10 02:21:45;;;;;;;4.10;2.10;;;4.80;99.90;;;;;;5057651;28;20458;-78
2022/04/10 02:24:13;;;;;;;2.73;2.00;;;4.80;99.90;;;;;;5075293;28;20033;-78
2022/04/10 02:26:38;;;;;;;3.93;2.27;;;4.80;99.90;;;;;;5058148;28;20020;-78
2022/04/10 02:29:04;;;;;;;4.17;2.00;;;4.80;99.90;;;;;;5075236;28;20031;-78
2022/04/10 02:31:30;;;;;;;4.00;2.07;;;4.80;99.90;;;;;;5075767;28;20103;-78
2022/04/10 02:33:56;;;;;;;3.40;2.17;;;4.80;99.90;;;;;;5057435;28;20085;-79
2022/04/10 02:36:22;;;;;;;3.63;2.30;;;4.80;99.90;;;;;;5057685;28;20426;-78
2022/04/10 02:38:48;;;;;;;5.23;2.23;;;4.80;99.90;;;;;;5057396;28;20052;-78
2022/04/10 02:41:13;;;;;;;4.93;2.03;;;4.80;99.90;;;;;;5073532;28;20024;-78
2022/04/10 02:43:42;;;;;;;4.00;2.17;;;4.80;99.90;;;;;;5075055;28;20043;-77
2022/04/10 02:46:08;;;;;;;5.23;2.37;;;4.80;99.90;;;;;;5074626;28;20052;-77
2022/04/10 02:48:34;;;;;;;5.90;2.53;;;4.80;99.90;;;;;;5057131;28;20063;-77
2022/04/10 02:50:59;;;;;;;5.50;2.23;;;4.80;99.90;;;;;;5056661;28;20016;-78
2022/04/10 02:53:25;;;;;;;3.77;2.00;;;4.80;99.90;;;;;;5074865;28;20036;-77
2022/04/10 02:55:51;;;;;;;3.27;2.10;;;4.80;99.90;;;;;;5056956;28;20021;-77
2022/04/10 02:58:16;;;;;;;2.83;2.30;;;4.70;99.90;;;;;;5074306;28;20267;-78
2022/04/10 03:00:42;;;;;;;6.07;2.60;;;4.70;99.90;;;;;;5074440;28;20415;-78
2022/04/10 03:03:07;;;;;;;3.80;2.07;;;4.70;99.90;;;;;;5056172;28;20017;-78
2022/04/10 03:05:33;;;;;;;5.27;2.60;;;4.70;99.90;;;;;;5074518;28;20099;-79
2022/04/10 03:07:59;;;;;;;4.27;2.00;;;4.60;99.90;;;;;;5073766;28;20404;-78
2022/04/10 03:10:24;;;;;;;7.13;2.43;;;4.60;99.90;;;;;;5074536;28;20024;-77
2022/04/10 03:12:50;;;;;;;3.87;2.20;;;4.60;99.90;;;;;;5074501;28;20032;-77
2022/04/10 03:15:16;;;;;;;4.93;2.03;;;4.60;99.90;;;;;;5056130;28;20035;-77
2022/04/10 03:17:41;;;;;;;5.00;1.93;;;4.60;99.90;;;;;;5074389;28;20027;-77
2022/04/10 03:20:08;;;;;;;5.97;2.10;;;4.60;99.90;;;;;;5055978;28;20466;-77
2022/04/10 03:22:34;;;;;;;2.57;1.83;;;4.60;99.90;;;;;;5056385;28;20017;-77
2022/04/10 03:25:00;;;;;;;3.17;2.40;;;4.60;99.90;;;;;;5073701;28;20044;-78
2022/04/10 03:27:25;;;;;;;4.37;2.23;;;4.60;99.90;;;;;;5056294;28;20054;-77
2022/04/10 03:29:51;;;;;;;3.33;2.20;;;4.60;99.90;;;;;;5074011;28;20080;-77
2022/04/10 03:32:17;;;;;;;4.90;2.07;;;4.60;99.90;;;;;;5073567;28;20055;-80
2022/04/10 03:34:42;;;;;;;5.10;2.20;;;4.70;99.90;;;;;;5055784;28;20017;-77
2022/04/10 03:37:08;;;;;;;3.73;2.10;;;4.70;99.90;;;;;;5055648;28;20591;-77
2022/04/10 03:39:33;;;;;;;5.10;2.20;;;4.70;99.90;;;;;;5055957;28;20029;-77
2022/04/10 03:41:59;;;;;;;3.40;1.97;;;4.70;99.90;;;;;;5056251;28;20342;-77
2022/04/10 03:44:25;;;;;;;3.33;1.97;;;4.70;99.90;;;;;;5056007;28;20044;-77
2022/04/10 03:46:50;;;;;;;4.43;1.90;;;4.70;99.90;;;;;;5073886;28;20028;-77
2022/04/10 03:49:16;;;;;;;4.80;2.33;;;4.70;99.90;;;;;;5073439;28;20024;-78
2022/04/10 03:51:41;;;;;;;4.07;2.00;;;4.70;99.90;;;;;;5073672;28;20028;-77
2022/04/10 03:54:07;;;;;;;4.80;2.33;;;4.70;99.90;;;;;;5055542;28;20023;-77
2022/04/10 03:56:33;;;;;;;9.57;2.47;;;4.70;99.90;;;;;;5056065;28;20446;-78
2022/04/10 03:58:58;;;;;;;3.27;1.90;;;4.70;99.90;;;;;;5073959;28;20115;-77
2022/04/10 04:01:24;;;;;;;4.43;2.40;;;4.70;99.90;;;;;;5055341;28;20017;-77
2022/04/10 04:03:49;;;;;;;3.97;2.17;;;4.70;99.90;;;;;;5056045;28;20020;-77
2022/04/10 04:06:15;;;;;;;3.93;2.07;;;4.70;99.90;;;;;;5055531;28;20071;-78
2022/04/10 04:08:41;;;;;;;5.03;2.00;;;4.70;99.90;;;;;;5056108;28;20450;-77
2022/04/10 04:11:07;;;;;;;4.03;2.20;;;4.70;99.90;;;;;;5055234;28;20089;-78
2022/04/10 04:13:35;;;;;;;5.17;2.33;;;4.70;99.90;;;;;;5073619;28;20025;-77
2022/04/10 04:16:01;;;;;;;3.37;2.47;;;4.70;99.90;;;;;;5055783;28;20054;-77
2022/04/10 04:18:27;;;;;;;7.53;2.47;;;4.70;99.90;;;;;;5073487;28;20032;-76
2022/04/10 04:20:52;;;;;;;4.77;2.27;;;4.70;99.90;;;;;;5055819;28;20020;-77
2022/04/10 04:23:19;;;;;;;4.47;2.67;;;4.70;99.90;;;;;;5054951;28;20107;-77
2022/04/10 04:25:45;;;;;;;4.57;2.43;;;4.60;99.90;;;;;;5055669;28;20109;-77
2022/04/10 04:28:11;;;;;;;4.83;2.67;;;4.60;99.90;;;;;;5055157;28;20044;-77
2022/04/10 04:30:36;;;;;;;5.40;2.40;;;4.60;99.90;;;;;;5055209;28;20027;-77
2022/04/10 04:33:02;;;;;;;5.13;2.70;;;4.70;99.90;;;;;;5055521;28;20023;-77
2022/04/10 04:35:28;;;;;;;3.10;2.20;;;4.60;99.90;;;;;;5055331;28;20024;-76
2022/04/10 04:37:55;;;;;;;3.50;2.83;;;4.60;99.90;;;;;;5055320;28;20024;-77
2022/04/10 04:40:21;;;;;;;4.83;2.50;;;4.60;99.90;;;;;;5072666;28;20086;-77
2022/04/10 04:42:47;;;;;;;9.83;2.57;;;4.60;99.90;;;;;;5055386;28;20020;-77
2022/04/10 04:45:13;;;;;;;4.20;2.90;;;4.60;99.90;;;;;;5072876;28;20024;-76
2022/04/10 04:47:38;;;;;;;5.93;2.80;;;4.60;99.90;;;;;;5055465;28;20443;-77
2022/04/10 04:50:06;;;;;;;4.43;2.53;;;4.50;99.90;;;;;;5072553;28;20028;-77
2022/04/10 04:52:32;;;;;;;3.50;2.57;;;4.50;99.90;;;;;;5073152;28;20030;-77
2022/04/10 04:54:58;;;;;;;5.00;2.67;;;4.50;99.90;;;;;;5055330;28;20025;-77
2022/04/10 04:57:23;;;;;;;5.00;2.70;;;4.50;99.90;;;;;;5072721;28;20490;-77
2022/04/10 04:59:49;;;;;;;4.50;2.53;;;4.40;99.90;;;;;;5055335;28;20028;-77
2022/04/10 05:02:14;;;;;;;4.90;2.80;;;4.40;99.90;;;;;;5054731;28;20021;-77
2022/04/10 05:04:40;;;;;;;8.53;2.50;;;4.40;99.90;;;;;;5057268;28;20016;-77
2022/04/10 05:07:05;;;;;;;5.80;2.93;;;4.40;99.90;;;;;;5058965;28;20021;-77
2022/04/10 05:09:31;;;;;;;5.23;2.87;;;4.40;99.90;;;;;;5077178;28;20411;-77
2022/04/10 05:11:57;;;;;;;5.80;2.73;;;4.40;99.90;;;;;;5076787;28;20350;-77
2022/04/10 05:14:22;;;;;;;4.63;2.63;;;4.40;99.90;;;;;;5058618;28;20059;-77
2022/04/10 05:16:48;;;;;;;5.53;2.70;;;4.40;99.90;;;;;;5059137;28;20016;-77
2022/04/10 05:19:14;;;;;;;4.73;3.00;;;4.50;99.90;;;;;;5076340;28;20025;-77
2022/04/10 05:21:40;;;;;;;4.47;3.10;;;4.50;99.90;;;;;;5058940;28;20054;-77
2022/04/10 05:24:06;;;;;;;6.03;3.53;;;4.50;99.90;;;;;;5058621;28;20072;-78
2022/04/10 05:26:32;;;;;;;5.47;2.90;;;4.50;99.90;;;;;;5076664;28;20326;-77
2022/04/10 05:28:57;;;;;;;7.67;3.30;;;4.60;99.90;;;;;;5058885;28;20075;-77
2022/04/10 05:31:24;;;;;;;5.53;2.70;;;4.60;99.90;;;;;;5076133;28;20089;-77
2022/04/10 05:33:49;;;;;;;8.50;3.30;;;4.60;99.90;;;;;;5058512;28;20054;-77
2022/04/10 05:36:15;;;;;;;5.03;2.80;;;4.60;99.90;;;;;;5075817;28;20100;-78
2022/04/10 05:38:41;;;;;;;5.07;2.63;;;4.70;99.90;;;;;;5058376;28;20050;-77
2022/04/10 05:41:07;;;;;;;7.53;3.50;;;4.70;99.90;;;;;;5058342;28;20123;-79
2022/04/10 05:43:32;;;;;;;9.23;3.20;;;4.70;99.90;;;;;;5058347;28;20021;-77
2022/04/10 05:45:58;;;;;;;4.77;3.00;;;4.70;99.90;;;;;;5058752;28;20020;-77
2022/04/10 05:48:24;;;;;;;7.57;3.20;;;4.80;99.90;;;;;;5057999;28;20020;-77
2022/04/10 05:50:49;;;;;;;6.07;3.00;;;4.80;99.90;;;;;;5058503;28;20047;-77
2022/04/10 05:53:15;;;;;;;7.63;3.00;;;4.90;99.90;;;;;;5075816;28;20432;-78
2022/04/10 05:55:40;;;;;;;5.70;3.27;;;4.90;99.90;;;;;;5076232;28;20023;-77
2022/04/10 05:58:06;;;;;;;6.57;3.27;;;5.00;99.90;;;;;;5058425;28;20056;-77
2022/04/10 06:00:32;;;;;;;4.70;3.07;;;5.00;99.90;;;;;;5075561;28;20031;-78
2022/04/10 06:03:02;;;;;;;6.07;3.10;;;5.00;99.90;;;;;;5058517;28;20017;-77
2022/04/10 06:05:28;;;;;;;6.60;3.40;;;5.00;99.90;;;;;;5057751;28;20257;-77
2022/04/10 06:07:53;;;;;;;6.07;2.90;;;5.00;99.90;;;;;;5076099;28;20365;-77
2022/04/10 06:10:19;;;;;;;7.37;3.47;;;5.10;99.90;;;;;;5057811;28;20029;-78
2022/04/10 06:12:45;;;;;;;6.67;3.13;;;5.10;99.90;;;;;;5075899;28;20031;-78
2022/04/10 06:15:10;;;;;;;6.70;3.20;;;5.20;99.90;;;;;;5075333;28;20021;-78
2022/04/10 06:17:36;;;;;;;7.20;2.97;;;5.20;99.90;;;;;;5058122;28;20044;-77
2022/04/10 06:20:02;;;;;;;6.23;2.97;;;5.30;99.90;;;;;;5075735;28;20033;-77
2022/04/10 06:22:28;;;;;;;7.77;3.27;;;5.30;99.90;;;;;;5057324;28;20180;-78
2022/04/10 06:24:54;;;;;;;6.50;2.80;;;5.30;99.90;;;;;;5075333;28;20044;-78
2022/04/10 06:27:20;;;;;;;5.33;2.80;;;5.30;99.90;;;;;;5075338;28;20020;-77
2022/04/10 06:29:47;;;;;;;7.53;3.40;;;5.40;99.90;;;;;;5075733;28;20058;-78
2022/04/10 06:32:13;;;;;;;9.03;3.07;;;5.40;99.90;;;;;;5057605;28;20020;-78
2022/04/10 06:34:39;;;;;;;7.13;3.23;;;5.50;99.90;;;;;;5057794;28;20020;-78
2022/04/10 06:37:05;;;;;;;4.37;3.10;;;5.50;99.90;;;;;;5075319;28;20022;-78
2022/04/10 06:39:31;;;;;;;4.93;2.93;;;5.50;99.90;;;;;;5057016;28;20420;-77
2022/04/10 06:41:57;;;;;;;4.50;2.63;;;5.60;99.90;;;;;;5057533;28;20450;-77
2022/04/10 06:44:23;;;;;;;9.57;3.00;;;5.60;99.90;;;;;;5057247;28;20067;-78
2022/04/10 06:46:48;;;;;;;5.07;2.97;;;5.60;99.90;;;;;;5057578;28;20021;-77
2022/04/10 06:49:14;;;;;;;4.37;2.80;;;5.60;99.90;;;;;;5056995;28;20048;-78
2022/04/10 06:51:40;;;;;;;5.73;2.80;;;5.70;99.90;;;;;;5057826;28;20357;-78
2022/04/10 06:54:07;;;;;;;5.77;2.93;;;5.70;99.90;;;;;;5057397;28;20115;-78
2022/04/10 06:56:33;;;;;;;4.07;2.63;;;5.80;99.90;;;;;;5057193;28;20116;-78
2022/04/10 06:58:59;;;;;;;7.13;3.07;;;5.90;99.90;;;;;;5075058;28;20103;-78
2022/04/10 07:01:24;;;;;;;5.47;3.43;;;5.90;99.90;;;;;;5057141;28;20117;-78
2022/04/10 07:03:50;;;;;;;5.23;2.80;;;6.00;99.90;;;;;;5057597;28;20418;-78
2022/04/10 07:06:15;;;;;;;5.97;3.33;;;6.00;99.90;;;;;;5056865;28;20029;-78
2022/04/10 07:08:41;;;;;;;6.00;2.77;;;6.10;99.90;;;;;;5057216;28;20028;-78
2022/04/10 07:11:07;;;;;;;5.40;3.10;;;6.00;99.90;;;;;;5057437;28;20074;-78
2022/04/10 07:13:32;;;;;;;6.47;3.10;;;6.00;99.90;;;;;;5056693;28;20024;-78
2022/04/10 07:15:58;;;;;;;4.77;2.97;;;6.00;99.90;;;;;;5057078;28;20025;-78
2022/04/10 07:18:24;;;;;;;5.87;2.80;;;6.10;99.90;;;;;;5056780;28;20103;-78
2022/04/10 07:20:49;;;;;;;6.87;2.80;;;6.10;99.90;;;;;;5056828;28;20064;-78
2022/04/10 07:25:59;;;;;;;6.50;3.13;;;6.10;99.90;;;;;;5074300;28;20074;-78
2022/04/10 07:28:25;;;;;;;5.83;2.90;;;6.10;99.90;;;;;;5055684;28;20024;-78
2022/04/10 07:30:51;;;;;;;5.33;3.33;;;6.10;99.90;;;;;;5056648;28;20027;-77
2022/04/10 07:33:16;;;;;;;5.53;3.03;;;6.20;99.90;;;;;;5056241;28;20023;-78
2022/04/10 07:35:43;;;;;;;5.23;3.00;;;6.30;99.90;;;;;;5073993;28;20044;-78
2022/04/10 07:38:12;;;;;;;4.73;3.33;;;6.30;99.90;;;;;;5073922;28;20046;-78
2022/04/10 07:40:38;;;;;;;5.87;3.27;;;6.30;99.90;;;;;;5055879;28;20036;-78
2022/04/10 07:43:04;;;;;;;7.53;3.43;;;6.40;99.90;;;;;;5056178;28;20484;-78
2022/04/10 07:48:14;;;;;;;6.27;3.77;;;6.50;99.90;;;;;;5073870;28;20036;-78
2022/04/10 07:50:40;;;;;;;8.97;3.13;;;6.50;99.90;;;;;;5056339;28;20029;-78
2022/04/10 07:53:06;;;;;;;7.77;3.30;;;6.50;99.90;;;;;;5056393;28;20028;-78
2022/04/10 07:55:31;;;;;;;10.27;4.27;;;6.60;99.90;;;;;;5055697;28;20021;-78
2022/04/10 07:57:57;;;;;;;5.97;3.00;;;6.70;99.90;;;;;;5074202;28;20025;-77
2022/04/10 08:00:23;;;;;;;7.03;3.33;;;6.80;99.90;;;;;;5073243;28;20028;-78
2022/04/10 08:02:49;;;;;;;6.27;3.10;;;6.90;99.90;;;;;;5056477;28;20055;-77
2022/04/10 08:05:16;;;;;;;7.33;3.23;;;6.90;99.90;;;;;;5073807;28;20461;-77
2022/04/10 08:07:44;;;;;;;4.80;2.60;;;6.90;99.90;;;;;;5072225;28;20017;-78
2022/04/10 08:10:10;;;;;;;6.50;3.37;;;6.80;99.90;;;;;;5073518;28;20077;-78
2022/04/10 08:12:36;;;;;;;8.27;3.30;;;6.80;99.90;;;;;;5081637;28;20031;-78
2022/04/10 08:15:03;;;;;;;6.23;2.77;;;6.90;99.90;;;;;;5054167;28;20024;-78
2022/04/10 08:17:29;;;;;;;7.90;3.67;;;6.90;99.90;;;;;;5056679;28;20016;-78
2022/04/10 08:19:54;;;;;;;5.87;3.23;;;6.80;99.90;;;;;;5064448;28;20085;-77
2022/04/10 08:22:27;;;;;;;6.60;3.13;;;6.90;99.90;;;;;;5081672;28;20027;-78
2022/04/10 08:24:53;;;;;;;4.33;2.90;;;6.90;99.90;;;;;;5056391;28;20049;-78
2022/04/10 08:27:19;;;;;;;5.00;2.80;;;7.00;99.90;;;;;;5062954;28;20040;-77
2022/04/10 08:29:45;;;;;;;5.83;2.97;;;7.10;99.90;;;;;;5083899;28;20020;-79
2022/04/10 08:32:11;;;;;;;3.80;2.70;;;7.10;99.90;;;;;;5080804;28;20031;-78
2022/04/10 08:34:36;;;;;;;8.43;3.30;;;7.20;99.90;;;;;;5072157;28;20020;-77
2022/04/10 08:37:05;;;;;;;7.23;3.37;;;7.30;99.90;;;;;;5055534;28;20036;-78
2022/04/10 08:39:34;;;;;;;5.47;3.00;;;7.50;99.90;;;;;;5085202;28;20032;-78
2022/04/10 08:42:05;;;;;;;5.43;2.73;;;7.60;99.90;;;;;;5073815;28;20032;-77
2022/04/10 08:44:32;;;;;;;5.13;2.90;;;7.60;99.90;;;;;;5065603;28;20025;-78
2022/04/10 08:47:01;;;;;;;4.27;2.70;;;7.60;99.90;;;;;;5062034;28;20020;-78
2022/04/10 08:49:31;;;;;;;6.23;2.90;;;7.70;99.90;;;;;;5057728;28;20032;-77
2022/04/10 08:51:58;;;;;;;4.07;2.50;;;7.80;99.90;;;;;;5068709;28;20027;-77
2022/04/10 08:54:25;;;;;;;4.97;2.97;;;7.80;99.90;;;;;;5074856;28;20043;-77
2022/04/10 08:56:51;;;;;;;5.10;2.50;;;7.90;99.90;;;;;;5063086;28;20055;-78
2022/04/10 08:59:19;;;;;;;7.17;2.97;;;7.90;99.90;;;;;;5082702;28;20367;-77
2022/04/10 09:01:45;;;;;;;6.63;2.90;;;7.90;99.80;;;;;;5055600;28;20461;-77
2022/04/10 09:04:10;;;;;;;5.10;2.70;;;8.00;99.50;;;;;;5051813;28;20049;-77
2022/04/10 09:06:40;;;;;;;4.88;2.67;;;8.00;99.90;;;;;;5058466;28;20472;-78
2022/04/10 09:09:12;;;;;;;3.67;2.65;;;8.10;99.60;;;;;;5070247;28;20043;-77
2022/04/10 09:11:42;;;;;;;6.50;2.57;;;8.10;99.50;;;;;;5074496;28;20324;-78
2022/04/10 09:14:07;;;;;;;4.30;2.55;;;8.20;99.50;;;;;;5087024;28;20025;-77
2022/04/10 09:16:33;;;;;;;4.90;2.95;;;8.30;99.40;;;;;;5076252;28;20025;-77
2022/04/10 09:19:01;;;;;;;5.07;2.63;;;8.30;98.90;;;;;;5061814;28;20036;-77
2022/04/10 09:21:29;;;;;;;6.05;2.80;;;8.20;99.00;;;;;;5083759;28;20016;-78
2022/04/10 09:23:59;;;;;;;4.50;3.00;;;8.10;99.20;;;;;;5055039;28;20512;-78
2022/04/10 09:26:26;;;;;;;4.50;2.63;;;8.20;99.50;;;;;;5066319;28;20351;-78
2022/04/10 09:28:53;;;;;;;5.25;2.83;;;8.20;99.90;;;;;;5052083;28;20119;-78
2022/04/10 09:31:31;;;;;;;6.80;2.58;;;8.30;99.90;;;;;;5064704;28;20051;-77
2022/04/10 09:33:59;;;;;;;5.95;2.95;;;8.20;98.90;;;;;;5055774;28;20051;-78
2022/04/10 09:36:35;;;;;;;4.90;2.85;;;8.20;98.30;;;;;;5084296;28;20016;-78
2022/04/10 09:39:12;;;;;;;4.57;2.13;;;8.20;97.60;;;;;;5062014;28;20028;-77
2022/04/10 09:41:39;;;;;;;5.95;2.70;;;8.30;98.30;;;;;;5056194;28;20036;-77
2022/04/10 09:44:17;;;;;;;5.25;2.72;;;8.30;97.90;;;;;;5086275;28;20025;-77
2022/04/10 09:46:55;;;;;;;5.30;2.90;;;8.30;97.10;;;;;;5059129;28;20045;-77
2022/04/10 09:49:20;;;;;;;6.05;2.67;;;8.30;96.90;;;;;;5089160;28;20031;-78
2022/04/10 09:52:04;;;;;;;6.47;3.03;;;8.50;97.40;;;;;;5058463;28;20036;-77
2022/04/10 09:54:47;;;;;;;6.05;2.95;;;8.50;97.80;;;;;;5074323;28;20028;-77
2022/04/10 09:57:14;;;;;;;6.40;3.08;;;8.60;97.80;;;;;;5063297;28;20066;-78
2022/04/10 09:59:51;;;;;;;4.72;2.80;;;8.80;97.90;;;;;;5088653;28;20231;-78
2022/04/10 10:02:18;;;;;;;7.18;3.00;;;8.90;96.00;;;;;;5043392;28;20030;-78
2022/04/10 10:04:47;;;;;;;2.92;2.47;;;9.00;95.90;;;;;;5081023;28;20052;-77
2022/04/10 10:07:15;;;;;;;4.38;2.85;;;9.20;96.20;;;;;;5080590;28;20104;-78
2022/04/10 10:09:41;;;;;;;4.43;2.50;;;9.40;94.80;;;;;;5087195;28;20591;-78
2022/04/10 10:12:07;;;;;;;5.72;2.47;;;9.40;93.70;;;;;;5057507;28;20473;-78
2022/04/10 10:14:34;;;;;;;4.85;2.40;;;9.30;94.80;;;;;;5067337;28;20095;-78
2022/04/10 10:17:02;;;;;;;6.18;2.83;;;9.50;95.70;;;;;;5082531;28;20024;-78
2022/04/10 10:19:39;;;;;;;7.20;2.80;;;9.60;95.20;;;;;;5078002;28;20032;-78
2022/04/10 10:22:07;;;;;;;6.97;3.00;;;9.70;94.80;;;;;;5070840;28;20039;-78
2022/04/10 10:24:48;;;;;;;4.50;2.63;;;9.60;95.10;;;;;;5078034;28;20067;-78
2022/04/10 10:27:35;;;;;;;3.83;2.85;;;9.40;94.20;;;;;;5062108;28;20115;-78
2022/04/10 10:30:13;;;;;;;4.55;2.75;;;9.30;94.90;;;;;;5070939;28;20063;-77
2022/04/10 10:32:57;;;;;;;3.38;2.30;;;9.20;95.30;;;;;;5079271;28;20016;-78
2022/04/10 10:35:42;;;;;;;3.47;2.50;;;9.30;96.20;;;;;;5060488;28;20028;-78
2022/04/10 10:38:49;;;;;;;5.28;2.35;;;9.30;95.60;;;;;;5072191;28;20031;-78
2022/04/10 10:41:18;;;;;;;7.07;2.72;;;9.30;94.90;;;;;;5056747;28;20139;-78
2022/04/10 10:43:44;;;;;;;6.43;2.90;;;9.20;95.00;;;;;;5069873;28;20423;-78
2022/04/10 10:46:30;;;;;;;5.38;2.42;;;9.20;95.30;;;;;;5057456;28;20111;-78
2022/04/10 10:49:19;;;;;;;7.32;2.67;;;9.30;95.60;;;;;;5064688;28;20044;-78
2022/04/10 10:51:50;;;;;;;5.65;2.30;;;9.30;95.60;;;;;;5070027;28;20059;-79
2022/04/10 10:54:21;;;;;;;4.27;2.77;;;9.40;95.80;;;;;;5060682;28;20035;-78
2022/04/10 10:56:50;;;;;;;3.45;2.53;;;9.30;95.40;;;;;;5065083;28;20266;-78
2022/04/10 10:59:37;;;;;;;4.97;2.80;;;9.30;94.80;;;;;;5084192;28;20119;-78
2022/04/10 11:02:14;;;;;;;5.22;2.42;;;9.30;95.20;;;;;;5056182;28;20035;-78
2022/04/10 11:04:45;;;;;;;5.95;2.15;;;9.10;94.40;;;;;;5079981;28;20079;-78
2022/04/10 11:07:25;;;;;;;4.57;2.50;;;9.00;94.50;;;;;;5061955;28;20031;-78
2022/04/10 11:10:10;;;;;;;8.27;2.25;;;9.00;94.70;;;;;;5069673;28;20040;-79
2022/04/10 11:12:54;;;;;;;4.75;2.75;;;9.00;95.30;;;;;;5059925;28;20415;-78
2022/04/10 11:15:31;;;;;;;4.38;2.20;;;9.00;94.40;;;;;;5073933;28;20047;-78
2022/04/10 11:18:20;;;;;;;3.78;2.30;;;9.00;94.20;;;;;;5056828;28;20114;-78
2022/04/10 11:20:57;;;;;;;9.23;2.58;;;8.90;94.90;;;;;;5081464;28;20060;-78
2022/04/10 11:23:30;;;;;;;4.28;2.50;;;8.90;95.80;;;;;;5084887;28;20023;-78
2022/04/10 11:26:02;;;;;;;5.10;2.65;;;8.90;96.30;;;;;;5056933;28;20373;-78
2022/04/10 11:28:29;;;;;;;;;;;8.80;97.80;;;;;;5067771;28;20025;-78
2022/04/10 11:30:55;;;;;;;6.32;2.92;;;8.80;99.90;;;;;;5063571;28;19900;-78
2022/04/10 11:33:20;;;;;;;4.55;2.58;;;8.70;99.90;;;;;;5060396;28;20584;-78
2022/04/10 11:35:56;;;;;;;6.45;2.60;;;8.80;99.90;;;;;;5086878;28;20032;-78
2022/04/10 11:38:23;;;;;;;5.60;2.67;;;8.70;99.90;;;;;;5058059;28;20028;-78
2022/04/10 11:40:53;;;;;;;5.28;2.58;;;8.80;99.90;;;;;;5072608;28;20043;-78
2022/04/10 11:43:21;;;;;;;4.90;2.60;;;8.80;99.90;;;;;;5060238;28;20479;-78
2022/04/10 11:45:56;;;;;;;5.70;3.00;;;8.80;99.90;;;;;;5069346;28;20070;-78
2022/04/10 11:48:24;;;;;;;5.57;2.50;;;8.80;99.90;;;;;;5058844;28;20096;-78
2022/04/10 11:50:50;;;;;;;5.18;2.63;;;8.90;99.90;;;;;;5064007;28;20070;-78
2022/04/10 11:53:16;;;;;;;5.90;2.60;;;8.90;99.90;;;;;;5065518;28;20527;-78
2022/04/10 11:55:42;;;;;;;4.72;2.80;;;9.00;99.90;;;;;;5056435;28;20056;-78
2022/04/10 11:58:20;;;;;;;5.65;2.90;;;8.90;99.90;;;;;;5087614;28;20062;-78
2022/04/10 12:00:57;;;;;;;4.30;2.50;;;8.90;99.90;;;;;;5060945;28;20043;-78
2022/04/10 12:03:27;;;;;;;4.50;2.85;;;8.70;99.40;;;;;;5077059;28;20056;-79
2022/04/10 12:05:54;;;;;;;3.90;2.65;;;8.70;99.90;;;;;;5053701;28;20031;-78
2022/04/10 12:08:21;;;;;;;6.88;2.70;;;8.50;99.90;;;;;;5090249;28;20023;-78
2022/04/10 12:11:13;;;;;;;2.95;2.13;;;8.50;99.90;;;;;;5064275;28;20239;-78
2022/04/10 12:13:39;;;;;;;6.53;2.80;;;8.60;99.90;;;;;;5065171;28;20456;-78
2022/04/10 12:16:17;;;;;;;3.28;2.15;;;8.80;99.90;;;;;;5057312;28;20115;-78
2022/04/10 12:18:51;;;;;;;3.42;2.25;;;9.20;99.90;;;;;;5072361;28;20032;-79
2022/04/10 12:21:18;;;;;;;3.22;2.10;;;9.50;99.90;;;;;;5090811;28;20487;-78
2022/04/10 12:23:45;;;;;;;5.30;2.08;;;9.40;99.60;;;;;;5055592;28;20048;-78
2022/04/10 12:26:12;;;;;;;3.33;2.10;;;9.50;99.90;;;;;;5073524;28;20063;-78
2022/04/10 12:28:39;;;;;;;3.72;2.40;;;9.40;99.90;;;;;;5077025;28;20077;-78
2022/04/10 12:31:05;;;;;;;3.28;2.20;;;9.30;99.90;;;;;;5061804;28;20032;-78
2022/04/10 12:33:31;;;;;;;4.13;2.25;;;9.30;99.90;;;;;;5066343;28;20024;-78
2022/04/10 12:35:57;;;;;;;5.35;2.20;;;9.30;99.90;;;;;;5090530;28;20059;-78
2022/04/10 12:38:28;;;;;;;3.70;2.15;;;9.40;99.90;;;;;;5072248;28;20067;-78
2022/04/10 12:41:04;;;;;;;5.17;2.33;;;9.90;99.90;;;;;;5072560;28;20036;-78
2022/04/10 12:43:30;;;;;;;4.70;2.10;;;10.40;99.90;;;;;;5057816;28;20292;-78
2022/04/10 12:46:11;;;;;;;3.67;1.88;;;11.10;99.90;;;;;;5068898;28;20044;-78
2022/04/10 12:48:37;;;;;;;6.22;2.30;;;11.30;98.90;;;;;;5059098;28;20028;-78
2022/04/10 12:51:14;;;;;;;4.97;2.20;;;11.10;98.10;;;;;;5061824;28;20031;-78
2022/04/10 12:53:47;;;;;;;3.30;1.73;;;10.90;97.60;;;;;;5086007;28;20020;-78
2022/04/10 12:56:21;;;;;;;3.60;1.70;;;10.80;98.20;;;;;;5040136;28;20095;-78
2022/04/10 12:58:48;;;;;;;5.22;2.00;;;10.60;98.80;;;;;;5063473;28;20032;-78
2022/04/10 13:01:50;;;;;;;3.25;1.98;;;10.50;98.00;;;;;;5082390;28;20024;-78
2022/04/10 13:04:28;;;;;;;6.45;1.80;;;10.40;98.10;;;;;;5045255;28;20028;-78
2022/04/10 13:06:54;;;;;;;3.80;2.00;;;10.20;97.70;;;;;;5062750;28;20029;-78
2022/04/10 13:09:19;;;;;;;3.25;1.75;;;10.10;96.80;;;;;;5065116;28;20035;-78